sensor_id;sensor_type;location;lat;lon;timestamp;P1;durP1;ratioP1;P2;durP2;ratioP2
52067;SDS011;60237;52.338;21.228;2022-12-07T00:01:25;80.93;;;30.98;;
52067;SDS011;60237;52.338;21.228;2022-12-07T00:03:52;83.78;;;32.80;;
52067;SDS011;60237;52.338;21.228;2022-12-07T00:06:20;102.72;;;36.10;;
52067;SDS011;60237;52.338;21.228;2022-12-07T00:08:47;80.60;;;32.70;;
52067;SDS011;60237;52.338;21.228;2022-12-07T00:11:19;89.15;;;34.33;;
52067;SDS011;60237;52.338;21.228;2022-12-07T00:13:47;89.90;;;35.97;;
52067;SDS011;60237;52.338;21.228;2022-12-07T00:16:15;129.23;;;41.67;;
52067;SDS011;60237;52.338;21.228;2022-12-07T00:18:42;81.20;;;33.60;;
52067;SDS011;60237;52.338;21.228;2022-12-07T00:21:10;106.28;;;38.97;;
52067;SDS011;60237;52.338;21.228;2022-12-07T00:23:36;98.13;;;32.95;;
52067;SDS011;60237;52.338;21.228;2022-12-07T00:26:07;102.43;;;35.67;;
52067;SDS011;60237;52.338;21.228;2022-12-07T00:28:34;101.90;;;36.70;;
52067;SDS011;60237;52.338;21.228;2022-12-07T00:31:10;98.25;;;34.83;;
52067;SDS011;60237;52.338;21.228;2022-12-07T00:33:37;82.75;;;32.75;;
52067;SDS011;60237;52.338;21.228;2022-12-07T00:36:06;87.50;;;30.88;;
52067;SDS011;60237;52.338;21.228;2022-12-07T00:38:33;101.38;;;34.10;;
52067;SDS011;60237;52.338;21.228;2022-12-07T00:41:01;101.05;;;35.63;;
52067;SDS011;60237;52.338;21.228;2022-12-07T00:43:28;83.55;;;29.40;;
52067;SDS011;60237;52.338;21.228;2022-12-07T00:45:55;78.97;;;29.05;;
52067;SDS011;60237;52.338;21.228;2022-12-07T00:48:22;74.60;;;28.88;;
52067;SDS011;60237;52.338;21.228;2022-12-07T00:50:49;96.05;;;30.77;;
52067;SDS011;60237;52.338;21.228;2022-12-07T00:53:16;62.17;;;25.35;;
52067;SDS011;60237;52.338;21.228;2022-12-07T00:55:42;72.97;;;27.77;;
52067;SDS011;60237;52.338;21.228;2022-12-07T00:58:09;78.53;;;26.73;;
52067;SDS011;60237;52.338;21.228;2022-12-07T01:00:36;86.05;;;28.42;;
52067;SDS011;60237;52.338;21.228;2022-12-07T01:03:04;70.35;;;27.23;;
52067;SDS011;60237;52.338;21.228;2022-12-07T01:05:30;77.90;;;27.30;;
52067;SDS011;60237;52.338;21.228;2022-12-07T01:07:57;76.25;;;27.20;;
52067;SDS011;60237;52.338;21.228;2022-12-07T01:10:24;71.55;;;26.15;;
52067;SDS011;60237;52.338;21.228;2022-12-07T01:12:50;58.25;;;21.05;;
52067;SDS011;60237;52.338;21.228;2022-12-07T01:15:17;60.33;;;24.23;;
52067;SDS011;60237;52.338;21.228;2022-12-07T01:17:43;49.35;;;20.17;;
52067;SDS011;60237;52.338;21.228;2022-12-07T01:20:10;67.03;;;22.17;;
52067;SDS011;60237;52.338;21.228;2022-12-07T01:22:37;69.05;;;22.58;;
52067;SDS011;60237;52.338;21.228;2022-12-07T01:25:05;64.82;;;20.95;;
52067;SDS011;60237;52.338;21.228;2022-12-07T01:27:32;69.18;;;22.33;;
52067;SDS011;60237;52.338;21.228;2022-12-07T01:29:59;61.83;;;20.98;;
52067;SDS011;60237;52.338;21.228;2022-12-07T01:32:26;74.07;;;24.95;;
52067;SDS011;60237;52.338;21.228;2022-12-07T01:34:53;76.47;;;25.38;;
52067;SDS011;60237;52.338;21.228;2022-12-07T01:37:19;66.00;;;21.65;;
52067;SDS011;60237;52.338;21.228;2022-12-07T01:39:49;58.38;;;22.40;;
52067;SDS011;60237;52.338;21.228;2022-12-07T01:42:16;73.07;;;25.48;;
52067;SDS011;60237;52.338;21.228;2022-12-07T01:47:28;82.00;;;27.10;;
52067;SDS011;60237;52.338;21.228;2022-12-07T01:49:55;82.93;;;27.40;;
52067;SDS011;60237;52.338;21.228;2022-12-07T01:52:23;79.53;;;27.73;;
52067;SDS011;60237;52.338;21.228;2022-12-07T01:54:51;91.20;;;29.98;;
52067;SDS011;60237;52.338;21.228;2022-12-07T01:57:19;93.85;;;31.45;;
52067;SDS011;60237;52.338;21.228;2022-12-07T01:59:47;74.38;;;26.98;;
52067;SDS011;60237;52.338;21.228;2022-12-07T02:02:49;98.32;;;32.20;;
52067;SDS011;60237;52.338;21.228;2022-12-07T02:05:08;109.65;;;33.17;;
52067;SDS011;60237;52.338;21.228;2022-12-07T02:07:35;140.95;;;38.38;;
52067;SDS011;60237;52.338;21.228;2022-12-07T02:10:13;126.03;;;35.72;;
52067;SDS011;60237;52.338;21.228;2022-12-07T02:12:39;71.35;;;27.75;;
52067;SDS011;60237;52.338;21.228;2022-12-07T02:15:06;95.35;;;33.80;;
52067;SDS011;60237;52.338;21.228;2022-12-07T02:17:48;68.40;;;27.00;;
52067;SDS011;60237;52.338;21.228;2022-12-07T02:25:27;75.90;;;27.95;;
52067;SDS011;60237;52.338;21.228;2022-12-07T02:28:01;82.72;;;28.88;;
52067;SDS011;60237;52.338;21.228;2022-12-07T02:30:31;101.90;;;32.40;;
52067;SDS011;60237;52.338;21.228;2022-12-07T02:33:04;76.78;;;26.58;;
52067;SDS011;60237;52.338;21.228;2022-12-07T02:35:43;80.53;;;28.42;;
52067;SDS011;60237;52.338;21.228;2022-12-07T02:43:30;101.68;;;33.80;;
52067;SDS011;60237;52.338;21.228;2022-12-07T02:46:16;93.28;;;29.63;;
52067;SDS011;60237;52.338;21.228;2022-12-07T02:48:43;96.53;;;32.20;;
52067;SDS011;60237;52.338;21.228;2022-12-07T02:51:11;85.25;;;30.13;;
52067;SDS011;60237;52.338;21.228;2022-12-07T02:53:39;79.18;;;29.73;;
52067;SDS011;60237;52.338;21.228;2022-12-07T02:59:17;67.13;;;24.33;;
52067;SDS011;60237;52.338;21.228;2022-12-07T03:06:39;77.97;;;23.13;;
52067;SDS011;60237;52.338;21.228;2022-12-07T03:11:41;66.05;;;24.35;;
52067;SDS011;60237;52.338;21.228;2022-12-07T03:14:13;72.03;;;23.27;;
52067;SDS011;60237;52.338;21.228;2022-12-07T03:16:50;49.90;;;17.92;;
52067;SDS011;60237;52.338;21.228;2022-12-07T03:19:19;51.08;;;19.67;;
52067;SDS011;60237;52.338;21.228;2022-12-07T03:21:47;49.03;;;16.42;;
52067;SDS011;60237;52.338;21.228;2022-12-07T03:24:17;47.70;;;17.35;;
52067;SDS011;60237;52.338;21.228;2022-12-07T03:26:46;45.30;;;16.15;;
52067;SDS011;60237;52.338;21.228;2022-12-07T03:29:19;38.95;;;14.77;;
52067;SDS011;60237;52.338;21.228;2022-12-07T03:31:47;45.80;;;16.00;;
52067;SDS011;60237;52.338;21.228;2022-12-07T03:34:19;60.45;;;18.00;;
52067;SDS011;60237;52.338;21.228;2022-12-07T03:41:41;36.13;;;12.43;;
52067;SDS011;60237;52.338;21.228;2022-12-07T03:44:11;49.28;;;15.57;;
52067;SDS011;60237;52.338;21.228;2022-12-07T03:46:48;63.42;;;14.82;;
52067;SDS011;60237;52.338;21.228;2022-12-07T03:49:28;38.50;;;14.30;;
52067;SDS011;60237;52.338;21.228;2022-12-07T03:52:07;62.03;;;17.50;;
52067;SDS011;60237;52.338;21.228;2022-12-07T03:57:01;55.67;;;15.57;;
52067;SDS011;60237;52.338;21.228;2022-12-07T03:59:28;47.38;;;14.95;;
52067;SDS011;60237;52.338;21.228;2022-12-07T04:01:56;63.22;;;15.82;;
52067;SDS011;60237;52.338;21.228;2022-12-07T04:04:23;48.95;;;15.05;;
52067;SDS011;60237;52.338;21.228;2022-12-07T04:06:50;41.60;;;13.80;;
52067;SDS011;60237;52.338;21.228;2022-12-07T04:09:17;26.65;;;11.90;;
52067;SDS011;60237;52.338;21.228;2022-12-07T04:11:44;36.78;;;13.20;;
52067;SDS011;60237;52.338;21.228;2022-12-07T04:14:10;45.65;;;13.65;;
52067;SDS011;60237;52.338;21.228;2022-12-07T04:16:46;36.97;;;13.30;;
52067;SDS011;60237;52.338;21.228;2022-12-07T04:19:14;49.53;;;13.40;;
52067;SDS011;60237;52.338;21.228;2022-12-07T04:21:41;49.35;;;15.15;;
52067;SDS011;60237;52.338;21.228;2022-12-07T04:24:07;47.65;;;12.32;;
52067;SDS011;60237;52.338;21.228;2022-12-07T04:26:34;58.65;;;15.35;;
52067;SDS011;60237;52.338;21.228;2022-12-07T04:29:01;39.67;;;13.10;;
52067;SDS011;60237;52.338;21.228;2022-12-07T04:31:32;45.67;;;13.95;;
52067;SDS011;60237;52.338;21.228;2022-12-07T04:33:59;52.17;;;14.45;;
52067;SDS011;60237;52.338;21.228;2022-12-07T04:36:26;50.35;;;15.50;;
52067;SDS011;60237;52.338;21.228;2022-12-07T04:38:53;43.55;;;16.27;;
52067;SDS011;60237;52.338;21.228;2022-12-07T04:41:21;46.35;;;15.48;;
52067;SDS011;60237;52.338;21.228;2022-12-07T04:43:56;34.03;;;12.50;;
52067;SDS011;60237;52.338;21.228;2022-12-07T04:46:23;47.53;;;15.48;;
52067;SDS011;60237;52.338;21.228;2022-12-07T04:48:51;49.92;;;15.27;;
52067;SDS011;60237;52.338;21.228;2022-12-07T04:51:22;36.58;;;12.15;;
52067;SDS011;60237;52.338;21.228;2022-12-07T04:53:49;43.42;;;13.32;;
52067;SDS011;60237;52.338;21.228;2022-12-07T04:56:16;48.50;;;14.60;;
52067;SDS011;60237;52.338;21.228;2022-12-07T04:58:43;45.33;;;13.77;;
52067;SDS011;60237;52.338;21.228;2022-12-07T05:01:10;60.22;;;15.93;;
52067;SDS011;60237;52.338;21.228;2022-12-07T05:03:36;43.20;;;14.85;;
52067;SDS011;60237;52.338;21.228;2022-12-07T05:06:03;39.28;;;12.65;;
52067;SDS011;60237;52.338;21.228;2022-12-07T05:08:37;56.33;;;16.42;;
52067;SDS011;60237;52.338;21.228;2022-12-07T05:11:04;52.60;;;15.88;;
52067;SDS011;60237;52.338;21.228;2022-12-07T05:13:31;45.55;;;14.50;;
52067;SDS011;60237;52.338;21.228;2022-12-07T05:15:58;61.55;;;15.38;;
52067;SDS011;60237;52.338;21.228;2022-12-07T05:18:25;40.67;;;13.48;;
52067;SDS011;60237;52.338;21.228;2022-12-07T05:20:51;43.00;;;13.07;;
52067;SDS011;60237;52.338;21.228;2022-12-07T05:23:18;56.17;;;15.32;;
52067;SDS011;60237;52.338;21.228;2022-12-07T05:25:45;34.80;;;13.27;;
52067;SDS011;60237;52.338;21.228;2022-12-07T05:28:12;51.17;;;14.32;;
52067;SDS011;60237;52.338;21.228;2022-12-07T05:30:39;51.00;;;14.95;;
52067;SDS011;60237;52.338;21.228;2022-12-07T05:33:05;41.22;;;13.40;;
52067;SDS011;60237;52.338;21.228;2022-12-07T05:35:32;43.28;;;14.55;;
52067;SDS011;60237;52.338;21.228;2022-12-07T05:37:58;44.03;;;13.25;;
52067;SDS011;60237;52.338;21.228;2022-12-07T05:40:25;42.97;;;13.45;;
52067;SDS011;60237;52.338;21.228;2022-12-07T05:42:51;41.33;;;12.70;;
52067;SDS011;60237;52.338;21.228;2022-12-07T05:45:18;34.78;;;13.05;;
52067;SDS011;60237;52.338;21.228;2022-12-07T05:47:44;48.42;;;16.00;;
52067;SDS011;60237;52.338;21.228;2022-12-07T05:50:11;81.18;;;17.80;;
52067;SDS011;60237;52.338;21.228;2022-12-07T05:52:38;51.13;;;14.23;;
52067;SDS011;60237;52.338;21.228;2022-12-07T05:55:05;58.85;;;16.50;;
52067;SDS011;60237;52.338;21.228;2022-12-07T05:57:33;45.13;;;15.20;;
52067;SDS011;60237;52.338;21.228;2022-12-07T05:59:59;49.22;;;14.55;;
52067;SDS011;60237;52.338;21.228;2022-12-07T06:02:26;38.95;;;13.38;;
52067;SDS011;60237;52.338;21.228;2022-12-07T06:04:53;27.73;;;11.05;;
52067;SDS011;60237;52.338;21.228;2022-12-07T06:07:20;32.72;;;12.48;;
52067;SDS011;60237;52.338;21.228;2022-12-07T06:09:46;50.03;;;14.35;;
52067;SDS011;60237;52.338;21.228;2022-12-07T06:12:13;43.00;;;13.35;;
52067;SDS011;60237;52.338;21.228;2022-12-07T06:14:58;46.58;;;13.27;;
52067;SDS011;60237;52.338;21.228;2022-12-07T06:17:24;36.35;;;11.68;;
52067;SDS011;60237;52.338;21.228;2022-12-07T06:19:51;29.40;;;11.30;;
52067;SDS011;60237;52.338;21.228;2022-12-07T06:22:18;42.35;;;12.55;;
52067;SDS011;60237;52.338;21.228;2022-12-07T06:24:44;40.17;;;12.32;;
52067;SDS011;60237;52.338;21.228;2022-12-07T06:27:11;34.05;;;13.27;;
52067;SDS011;60237;52.338;21.228;2022-12-07T06:29:37;39.75;;;13.35;;
52067;SDS011;60237;52.338;21.228;2022-12-07T06:32:04;50.13;;;14.05;;
52067;SDS011;60237;52.338;21.228;2022-12-07T06:34:31;34.05;;;12.85;;
52067;SDS011;60237;52.338;21.228;2022-12-07T06:36:57;71.13;;;16.58;;
52067;SDS011;60237;52.338;21.228;2022-12-07T06:39:25;54.50;;;15.38;;
52067;SDS011;60237;52.338;21.228;2022-12-07T06:41:52;56.70;;;17.92;;
52067;SDS011;60237;52.338;21.228;2022-12-07T06:44:19;45.10;;;15.02;;
52067;SDS011;60237;52.338;21.228;2022-12-07T06:46:46;36.03;;;14.27;;
52067;SDS011;60237;52.338;21.228;2022-12-07T06:49:12;55.22;;;17.38;;
52067;SDS011;60237;52.338;21.228;2022-12-07T06:51:39;52.58;;;16.27;;
52067;SDS011;60237;52.338;21.228;2022-12-07T06:54:11;55.00;;;15.98;;
52067;SDS011;60237;52.338;21.228;2022-12-07T06:56:37;44.60;;;13.68;;
52067;SDS011;60237;52.338;21.228;2022-12-07T06:59:04;54.75;;;14.63;;
52067;SDS011;60237;52.338;21.228;2022-12-07T07:01:33;50.15;;;15.80;;
52067;SDS011;60237;52.338;21.228;2022-12-07T07:04:00;42.90;;;13.32;;
52067;SDS011;60237;52.338;21.228;2022-12-07T07:06:26;42.20;;;12.20;;
52067;SDS011;60237;52.338;21.228;2022-12-07T07:08:53;37.35;;;13.05;;
52067;SDS011;60237;52.338;21.228;2022-12-07T07:11:20;35.47;;;12.32;;
52067;SDS011;60237;52.338;21.228;2022-12-07T07:13:46;38.92;;;12.90;;
52067;SDS011;60237;52.338;21.228;2022-12-07T07:16:13;45.85;;;12.93;;
52067;SDS011;60237;52.338;21.228;2022-12-07T07:18:40;35.75;;;12.07;;
52067;SDS011;60237;52.338;21.228;2022-12-07T07:21:07;41.58;;;11.95;;
52067;SDS011;60237;52.338;21.228;2022-12-07T07:23:33;39.00;;;12.10;;
52067;SDS011;60237;52.338;21.228;2022-12-07T07:26:00;39.83;;;12.15;;
52067;SDS011;60237;52.338;21.228;2022-12-07T07:28:26;42.05;;;13.50;;
52067;SDS011;60237;52.338;21.228;2022-12-07T07:30:52;39.13;;;13.02;;
52067;SDS011;60237;52.338;21.228;2022-12-07T07:33:19;31.20;;;12.25;;
52067;SDS011;60237;52.338;21.228;2022-12-07T07:35:46;46.55;;;12.10;;
52067;SDS011;60237;52.338;21.228;2022-12-07T07:38:12;35.17;;;12.00;;
52067;SDS011;60237;52.338;21.228;2022-12-07T07:40:39;50.10;;;14.20;;
52067;SDS011;60237;52.338;21.228;2022-12-07T07:43:05;49.67;;;14.35;;
52067;SDS011;60237;52.338;21.228;2022-12-07T07:45:32;39.83;;;13.57;;
52067;SDS011;60237;52.338;21.228;2022-12-07T07:47:58;35.70;;;12.25;;
52067;SDS011;60237;52.338;21.228;2022-12-07T07:50:25;37.58;;;12.75;;
52067;SDS011;60237;52.338;21.228;2022-12-07T07:52:51;39.53;;;13.57;;
52067;SDS011;60237;52.338;21.228;2022-12-07T07:55:18;28.55;;;12.20;;
52067;SDS011;60237;52.338;21.228;2022-12-07T07:57:45;38.42;;;11.80;;
52067;SDS011;60237;52.338;21.228;2022-12-07T08:00:19;38.65;;;12.50;;
52067;SDS011;60237;52.338;21.228;2022-12-07T08:02:46;38.47;;;13.07;;
52067;SDS011;60237;52.338;21.228;2022-12-07T08:05:13;37.33;;;12.52;;
52067;SDS011;60237;52.338;21.228;2022-12-07T08:07:39;33.97;;;11.30;;
52067;SDS011;60237;52.338;21.228;2022-12-07T08:10:07;85.93;;;17.33;;
52067;SDS011;60237;52.338;21.228;2022-12-07T08:12:35;56.28;;;15.38;;
52067;SDS011;60237;52.338;21.228;2022-12-07T08:15:02;41.67;;;12.90;;
52067;SDS011;60237;52.338;21.228;2022-12-07T08:17:28;38.80;;;12.40;;
52067;SDS011;60237;52.338;21.228;2022-12-07T08:19:55;35.47;;;12.40;;
52067;SDS011;60237;52.338;21.228;2022-12-07T08:22:22;46.08;;;15.35;;
52067;SDS011;60237;52.338;21.228;2022-12-07T08:24:49;33.33;;;13.23;;
52067;SDS011;60237;52.338;21.228;2022-12-07T08:27:15;32.55;;;12.10;;
52067;SDS011;60237;52.338;21.228;2022-12-07T08:29:42;40.42;;;12.85;;
52067;SDS011;60237;52.338;21.228;2022-12-07T08:32:08;43.55;;;13.85;;
52067;SDS011;60237;52.338;21.228;2022-12-07T08:34:35;42.05;;;14.15;;
52067;SDS011;60237;52.338;21.228;2022-12-07T08:37:03;61.60;;;16.75;;
52067;SDS011;60237;52.338;21.228;2022-12-07T08:39:29;41.97;;;13.00;;
52067;SDS011;60237;52.338;21.228;2022-12-07T08:41:58;48.10;;;14.23;;
52067;SDS011;60237;52.338;21.228;2022-12-07T08:44:24;49.20;;;15.30;;
52067;SDS011;60237;52.338;21.228;2022-12-07T08:46:52;41.80;;;14.55;;
52067;SDS011;60237;52.338;21.228;2022-12-07T08:49:26;38.13;;;14.48;;
52067;SDS011;60237;52.338;21.228;2022-12-07T08:51:54;42.85;;;14.57;;
52067;SDS011;60237;52.338;21.228;2022-12-07T08:54:21;49.22;;;16.70;;
52067;SDS011;60237;52.338;21.228;2022-12-07T08:56:48;55.33;;;15.70;;
52067;SDS011;60237;52.338;21.228;2022-12-07T08:59:24;41.35;;;13.77;;
52067;SDS011;60237;52.338;21.228;2022-12-07T09:01:51;42.25;;;16.50;;
52067;SDS011;60237;52.338;21.228;2022-12-07T09:04:17;69.72;;;17.77;;
52067;SDS011;60237;52.338;21.228;2022-12-07T09:06:44;39.78;;;15.43;;
52067;SDS011;60237;52.338;21.228;2022-12-07T09:09:11;61.30;;;19.33;;
52067;SDS011;60237;52.338;21.228;2022-12-07T09:11:37;77.25;;;20.85;;
52067;SDS011;60237;52.338;21.228;2022-12-07T09:14:05;65.78;;;19.70;;
52067;SDS011;60237;52.338;21.228;2022-12-07T09:16:31;58.22;;;18.75;;
52067;SDS011;60237;52.338;21.228;2022-12-07T09:18:58;79.47;;;21.98;;
52067;SDS011;60237;52.338;21.228;2022-12-07T09:21:25;60.65;;;20.08;;
52067;SDS011;60237;52.338;21.228;2022-12-07T09:23:51;45.65;;;17.88;;
52067;SDS011;60237;52.338;21.228;2022-12-07T09:26:18;67.78;;;20.13;;
52067;SDS011;60237;52.338;21.228;2022-12-07T09:28:44;51.05;;;17.98;;
52067;SDS011;60237;52.338;21.228;2022-12-07T09:31:11;52.83;;;17.70;;
52067;SDS011;60237;52.338;21.228;2022-12-07T09:33:53;52.72;;;17.83;;
52067;SDS011;60237;52.338;21.228;2022-12-07T09:36:20;54.35;;;19.60;;
52067;SDS011;60237;52.338;21.228;2022-12-07T09:38:46;43.15;;;17.35;;
52067;SDS011;60237;52.338;21.228;2022-12-07T09:41:13;46.53;;;15.88;;
52067;SDS011;60237;52.338;21.228;2022-12-07T09:43:40;47.90;;;17.05;;
52067;SDS011;60237;52.338;21.228;2022-12-07T09:46:08;60.78;;;17.60;;
52067;SDS011;60237;52.338;21.228;2022-12-07T09:48:38;51.15;;;18.02;;
52067;SDS011;60237;52.338;21.228;2022-12-07T09:51:18;55.83;;;17.20;;
52067;SDS011;60237;52.338;21.228;2022-12-07T09:53:50;55.05;;;17.77;;
52067;SDS011;60237;52.338;21.228;2022-12-07T09:56:17;60.30;;;18.45;;
52067;SDS011;60237;52.338;21.228;2022-12-07T09:58:44;49.90;;;17.27;;
52067;SDS011;60237;52.338;21.228;2022-12-07T10:01:15;55.88;;;18.55;;
52067;SDS011;60237;52.338;21.228;2022-12-07T10:03:45;40.95;;;14.68;;
52067;SDS011;60237;52.338;21.228;2022-12-07T10:06:13;56.67;;;17.27;;
52067;SDS011;60237;52.338;21.228;2022-12-07T10:08:40;42.10;;;15.65;;
52067;SDS011;60237;52.338;21.228;2022-12-07T10:11:09;47.03;;;15.95;;
52067;SDS011;60237;52.338;21.228;2022-12-07T10:16:03;59.65;;;17.08;;
52067;SDS011;60237;52.338;21.228;2022-12-07T10:21:09;42.53;;;13.57;;
52067;SDS011;60237;52.338;21.228;2022-12-07T10:23:37;47.78;;;13.90;;
52067;SDS011;60237;52.338;21.228;2022-12-07T10:26:50;50.38;;;14.60;;
52067;SDS011;60237;52.338;21.228;2022-12-07T10:28:50;39.88;;;13.80;;
52067;SDS011;60237;52.338;21.228;2022-12-07T10:31:18;40.25;;;12.90;;
52067;SDS011;60237;52.338;21.228;2022-12-07T10:38:51;48.92;;;15.25;;
52067;SDS011;60237;52.338;21.228;2022-12-07T10:41:17;37.22;;;13.50;;
52067;SDS011;60237;52.338;21.228;2022-12-07T10:43:49;44.78;;;13.88;;
52067;SDS011;60237;52.338;21.228;2022-12-07T10:46:23;61.90;;;15.95;;
52067;SDS011;60237;52.338;21.228;2022-12-07T10:48:55;44.35;;;14.00;;
52067;SDS011;60237;52.338;21.228;2022-12-07T11:07:39;43.15;;;14.70;;
52067;SDS011;60237;52.338;21.228;2022-12-07T11:15:33;41.35;;;15.00;;
52067;SDS011;60237;52.338;21.228;2022-12-07T11:23:48;37.50;;;14.13;;
52067;SDS011;60237;52.338;21.228;2022-12-07T11:26:24;46.85;;;14.77;;
52067;SDS011;60237;52.338;21.228;2022-12-07T11:31:28;49.65;;;16.60;;
52067;SDS011;60237;52.338;21.228;2022-12-07T11:33:59;39.72;;;16.20;;
52067;SDS011;60237;52.338;21.228;2022-12-07T11:36:40;43.28;;;15.85;;
52067;SDS011;60237;52.338;21.228;2022-12-07T11:41:55;35.95;;;15.90;;
52067;SDS011;60237;52.338;21.228;2022-12-07T11:46:58;34.38;;;13.38;;
52067;SDS011;60237;52.338;21.228;2022-12-07T11:49:31;44.92;;;14.63;;
52067;SDS011;60237;52.338;21.228;2022-12-07T11:52:04;44.67;;;13.98;;
52067;SDS011;60237;52.338;21.228;2022-12-07T11:54:34;34.95;;;13.20;;
52067;SDS011;60237;52.338;21.228;2022-12-07T11:57:02;33.90;;;13.68;;
52067;SDS011;60237;52.338;21.228;2022-12-07T11:59:31;44.78;;;14.88;;
52067;SDS011;60237;52.338;21.228;2022-12-07T12:07:35;43.58;;;15.43;;
52067;SDS011;60237;52.338;21.228;2022-12-07T12:10:25;47.15;;;15.55;;
52067;SDS011;60237;52.338;21.228;2022-12-07T12:12:59;36.25;;;15.60;;
52067;SDS011;60237;52.338;21.228;2022-12-07T12:15:52;41.75;;;16.23;;
52067;SDS011;60237;52.338;21.228;2022-12-07T12:21:10;39.92;;;16.55;;
52067;SDS011;60237;52.338;21.228;2022-12-07T12:23:54;33.63;;;14.82;;
52067;SDS011;60237;52.338;21.228;2022-12-07T12:26:23;34.33;;;15.65;;
52067;SDS011;60237;52.338;21.228;2022-12-07T12:33:50;34.55;;;14.88;;
52067;SDS011;60237;52.338;21.228;2022-12-07T12:38:48;33.40;;;14.52;;
52067;SDS011;60237;52.338;21.228;2022-12-07T12:44:00;48.33;;;17.23;;
52067;SDS011;60237;52.338;21.228;2022-12-07T12:51:42;35.15;;;16.13;;
52067;SDS011;60237;52.338;21.228;2022-12-07T12:59:27;48.08;;;17.83;;
52067;SDS011;60237;52.338;21.228;2022-12-07T13:04:48;44.47;;;15.63;;
52067;SDS011;60237;52.338;21.228;2022-12-07T13:07:47;55.85;;;17.13;;
52067;SDS011;60237;52.338;21.228;2022-12-07T13:10:02;69.03;;;18.10;;
52067;SDS011;60237;52.338;21.228;2022-12-07T13:12:29;43.28;;;14.57;;
52067;SDS011;60237;52.338;21.228;2022-12-07T13:14:56;44.75;;;15.50;;
52067;SDS011;60237;52.338;21.228;2022-12-07T13:20:05;46.28;;;16.23;;
52067;SDS011;60237;52.338;21.228;2022-12-07T13:22:43;33.85;;;13.30;;
52067;SDS011;60237;52.338;21.228;2022-12-07T13:27:40;38.20;;;14.43;;
52067;SDS011;60237;52.338;21.228;2022-12-07T13:30:11;44.78;;;14.05;;
52067;SDS011;60237;52.338;21.228;2022-12-07T13:32:40;47.63;;;14.45;;
52067;SDS011;60237;52.338;21.228;2022-12-07T13:37:52;38.80;;;13.82;;
52067;SDS011;60237;52.338;21.228;2022-12-07T13:40:19;56.35;;;16.45;;
52067;SDS011;60237;52.338;21.228;2022-12-07T13:42:46;33.15;;;14.63;;
52067;SDS011;60237;52.338;21.228;2022-12-07T13:47:54;30.27;;;13.68;;
52067;SDS011;60237;52.338;21.228;2022-12-07T13:50:24;44.53;;;14.55;;
52067;SDS011;60237;52.338;21.228;2022-12-07T13:52:54;33.53;;;13.02;;
52067;SDS011;60237;52.338;21.228;2022-12-07T13:55:21;32.08;;;12.68;;
52067;SDS011;60237;52.338;21.228;2022-12-07T13:57:49;34.08;;;13.05;;
52067;SDS011;60237;52.338;21.228;2022-12-07T14:00:18;48.22;;;14.20;;
52067;SDS011;60237;52.338;21.228;2022-12-07T14:02:58;34.95;;;12.80;;
52067;SDS011;60237;52.338;21.228;2022-12-07T14:05:31;38.30;;;13.50;;
52067;SDS011;60237;52.338;21.228;2022-12-07T14:12:52;31.73;;;13.90;;
52067;SDS011;60237;52.338;21.228;2022-12-07T14:15:22;31.33;;;13.40;;
52067;SDS011;60237;52.338;21.228;2022-12-07T14:17:50;34.67;;;13.05;;
52067;SDS011;60237;52.338;21.228;2022-12-07T14:20:34;39.45;;;14.10;;
52067;SDS011;60237;52.338;21.228;2022-12-07T14:23:03;41.53;;;14.88;;
52067;SDS011;60237;52.338;21.228;2022-12-07T14:25:48;41.05;;;14.77;;
52067;SDS011;60237;52.338;21.228;2022-12-07T14:30:52;44.90;;;17.23;;
52067;SDS011;60237;52.338;21.228;2022-12-07T14:33:19;56.28;;;19.08;;
52067;SDS011;60237;52.338;21.228;2022-12-07T14:35:46;39.38;;;17.08;;
52067;SDS011;60237;52.338;21.228;2022-12-07T14:38:13;47.60;;;19.75;;
52067;SDS011;60237;52.338;21.228;2022-12-07T14:40:39;48.70;;;18.70;;
52067;SDS011;60237;52.338;21.228;2022-12-07T14:43:08;56.85;;;19.58;;
52067;SDS011;60237;52.338;21.228;2022-12-07T14:45:37;58.75;;;19.90;;
52067;SDS011;60237;52.338;21.228;2022-12-07T14:48:03;64.43;;;19.10;;
52067;SDS011;60237;52.338;21.228;2022-12-07T14:50:51;44.65;;;18.67;;
52067;SDS011;60237;52.338;21.228;2022-12-07T14:53:40;48.58;;;19.42;;
52067;SDS011;60237;52.338;21.228;2022-12-07T14:56:07;58.63;;;21.02;;
52067;SDS011;60237;52.338;21.228;2022-12-07T14:58:34;48.83;;;18.77;;
52067;SDS011;60237;52.338;21.228;2022-12-07T15:01:00;52.75;;;21.33;;
52067;SDS011;60237;52.338;21.228;2022-12-07T15:03:27;47.70;;;20.52;;
52067;SDS011;60237;52.338;21.228;2022-12-07T15:05:54;53.05;;;20.48;;
52067;SDS011;60237;52.338;21.228;2022-12-07T15:08:20;44.97;;;18.60;;
52067;SDS011;60237;52.338;21.228;2022-12-07T15:10:47;38.75;;;18.42;;
52067;SDS011;60237;52.338;21.228;2022-12-07T15:13:13;57.70;;;19.70;;
52067;SDS011;60237;52.338;21.228;2022-12-07T15:15:59;50.40;;;18.88;;
52067;SDS011;60237;52.338;21.228;2022-12-07T15:18:25;44.35;;;18.30;;
52067;SDS011;60237;52.338;21.228;2022-12-07T15:20:52;48.60;;;18.75;;
52067;SDS011;60237;52.338;21.228;2022-12-07T15:23:18;50.35;;;19.15;;
52067;SDS011;60237;52.338;21.228;2022-12-07T15:25:46;64.50;;;22.75;;
52067;SDS011;60237;52.338;21.228;2022-12-07T15:28:13;69.43;;;23.00;;
52067;SDS011;60237;52.338;21.228;2022-12-07T15:30:43;66.97;;;35.83;;
52067;SDS011;60237;52.338;21.228;2022-12-07T15:33:10;71.32;;;27.27;;
52067;SDS011;60237;52.338;21.228;2022-12-07T15:35:41;77.88;;;28.02;;
52067;SDS011;60237;52.338;21.228;2022-12-07T15:38:07;70.57;;;26.15;;
52067;SDS011;60237;52.338;21.228;2022-12-07T15:40:34;60.83;;;26.70;;
52067;SDS011;60237;52.338;21.228;2022-12-07T15:43:01;73.50;;;26.15;;
52067;SDS011;60237;52.338;21.228;2022-12-07T15:45:28;76.80;;;26.38;;
52067;SDS011;60237;52.338;21.228;2022-12-07T15:47:54;64.90;;;23.73;;
52067;SDS011;60237;52.338;21.228;2022-12-07T15:50:41;62.65;;;25.02;;
52067;SDS011;60237;52.338;21.228;2022-12-07T15:53:08;62.95;;;24.05;;
52067;SDS011;60237;52.338;21.228;2022-12-07T15:55:34;72.07;;;27.13;;
52067;SDS011;60237;52.338;21.228;2022-12-07T15:58:00;74.32;;;26.30;;
52067;SDS011;60237;52.338;21.228;2022-12-07T16:00:27;71.30;;;27.73;;
52067;SDS011;60237;52.338;21.228;2022-12-07T16:02:54;72.85;;;28.80;;
52067;SDS011;60237;52.338;21.228;2022-12-07T16:05:20;58.88;;;24.60;;
52067;SDS011;60237;52.338;21.228;2022-12-07T16:07:47;64.65;;;26.27;;
52067;SDS011;60237;52.338;21.228;2022-12-07T16:10:13;88.53;;;26.48;;
52067;SDS011;60237;52.338;21.228;2022-12-07T16:12:40;54.58;;;24.30;;
52067;SDS011;60237;52.338;21.228;2022-12-07T16:15:06;66.50;;;26.63;;
52067;SDS011;60237;52.338;21.228;2022-12-07T16:17:33;70.38;;;26.38;;
52067;SDS011;60237;52.338;21.228;2022-12-07T16:20:00;66.53;;;26.40;;
52067;SDS011;60237;52.338;21.228;2022-12-07T16:22:26;64.20;;;25.30;;
52067;SDS011;60237;52.338;21.228;2022-12-07T16:24:53;65.43;;;23.33;;